createdAt,value
2023-05-15T05:51:36.635Z,9.43
2023-05-15T05:54:06.788Z,9.47
2023-05-15T05:56:36.453Z,9.51
2023-05-15T05:59:06.494Z,9.61
2023-05-15T06:01:36.261Z,9.68
2023-05-15T06:04:06.598Z,9.76
2023-05-15T06:06:37.532Z,9.86
2023-05-15T06:09:07.015Z,9.94
2023-05-15T06:11:37.195Z,10.04
2023-05-15T06:14:08.380Z,10.09
2023-05-15T06:16:37.924Z,10.15
2023-05-15T06:19:07.808Z,10.21
2023-05-15T06:21:38.789Z,10.27
2023-05-15T06:24:08.574Z,10.30
2023-05-15T06:26:38.226Z,10.34
2023-05-15T06:29:07.685Z,10.38
2023-05-15T06:31:37.202Z,10.41
2023-05-15T06:34:06.661Z,10.46
2023-05-15T06:36:36.327Z,10.51
2023-05-15T06:39:10.571Z,10.57
2023-05-15T06:41:40.130Z,10.63
2023-05-15T06:44:14.917Z,10.69
2023-05-15T06:46:44.446Z,10.75
2023-05-15T06:49:13.971Z,10.78
2023-05-15T06:51:43.485Z,10.83
2023-05-15T06:54:15.545Z,10.83
2023-05-15T06:56:45.234Z,10.90
2023-05-15T06:59:14.915Z,10.94
2023-05-15T07:01:44.521Z,10.99
2023-05-15T07:04:14.033Z,11.04
2023-05-15T07:06:44.913Z,11.14
2023-05-15T07:09:15.980Z,11.28
2023-05-15T07:11:45.450Z,11.42
2023-05-15T07:14:15.007Z,11.55
2023-05-15T07:16:45.154Z,11.64
2023-05-15T07:19:17.452Z,11.77
2023-05-15T07:21:47.089Z,11.88
2023-05-15T07:24:17.911Z,11.91
2023-05-15T07:26:58.077Z,11.90
2023-05-15T07:29:28.767Z,11.86
2023-05-15T07:31:58.251Z,11.93
2023-05-15T07:34:27.856Z,11.99
2023-05-15T07:36:57.350Z,12.08
2023-05-15T07:39:28.211Z,11.99
2023-05-15T07:41:57.827Z,12.13
2023-05-15T07:44:27.329Z,12.23
2023-05-15T07:46:57.442Z,12.19
2023-05-15T07:49:26.926Z,12.29
2023-05-15T07:51:56.442Z,12.27
2023-05-15T07:54:27.836Z,12.22
2023-05-15T07:56:57.519Z,12.28
2023-05-15T07:59:28.174Z,12.29
2023-05-15T08:01:57.957Z,12.32
2023-05-15T08:04:27.535Z,12.41
2023-05-15T08:06:57.129Z,12.46
2023-05-15T08:09:27.980Z,12.45
2023-05-15T08:11:58.317Z,12.45
2023-05-15T08:14:27.884Z,12.37
2023-05-15T08:16:57.404Z,12.42
2023-05-15T08:19:26.953Z,12.53
2023-05-15T08:21:56.397Z,12.73
2023-05-15T08:24:27.332Z,12.89
2023-05-15T08:26:56.770Z,12.93
2023-05-15T08:29:26.220Z,13.02
2023-05-15T08:31:55.672Z,13.20
2023-05-15T08:34:25.119Z,13.36
2023-05-15T08:36:55.839Z,13.58
2023-05-15T08:39:25.691Z,13.67
2023-05-15T08:42:06.904Z,13.79
2023-05-15T08:44:37.328Z,13.87
2023-05-15T08:47:08.023Z,14.02
2023-05-15T08:49:51.521Z,14.10
2023-05-15T08:52:21.505Z,14.09
2023-05-15T08:54:51.316Z,14.23
2023-05-15T08:57:22.623Z,14.23
2023-05-15T08:59:54.088Z,14.44
2023-05-15T09:02:25.333Z,14.55
2023-05-15T09:04:55.022Z,14.75
2023-05-15T09:07:25.002Z,14.85
2023-05-15T09:09:55.619Z,14.88
2023-05-15T09:12:27.851Z,15.01
2023-05-15T09:15:11.954Z,15.24
2023-05-15T09:17:43.112Z,15.53
2023-05-15T09:20:31.980Z,15.52
2023-05-15T09:23:04.636Z,15.46
2023-05-15T09:25:38.512Z,15.50
2023-05-15T09:28:24.784Z,15.47
2023-05-15T09:31:01.259Z,15.70
2023-05-15T09:33:36.111Z,15.93
2023-05-15T09:36:08.723Z,16.10
2023-05-15T09:38:43.653Z,16.03
2023-05-15T09:41:13.120Z,15.98
2023-05-15T09:43:43.892Z,16.07
2023-05-15T09:46:15.918Z,16.09
2023-05-15T09:48:45.665Z,15.94
2023-05-15T09:51:19.899Z,16.09
2023-05-15T09:53:51.486Z,16.24
2023-05-15T09:56:22.141Z,16.48
2023-05-15T09:58:57.793Z,16.29
2023-05-15T10:01:28.366Z,16.07
2023-05-15T10:04:03.129Z,16.13
2023-05-15T10:06:37.512Z,16.27
2023-05-15T10:09:07.553Z,16.24
2023-05-15T10:11:39.188Z,16.04
2023-05-15T10:14:13.136Z,16.05
2023-05-15T10:16:43.228Z,16.42
2023-05-15T10:19:14.454Z,16.87
2023-05-15T10:21:44.496Z,17.01
2023-05-15T10:24:14.955Z,17.06
2023-05-15T10:26:45.096Z,16.84
2023-05-15T10:29:21.109Z,16.88
2023-05-15T10:31:52.419Z,17.00
2023-05-15T10:34:22.316Z,17.01
2023-05-15T10:36:52.532Z,17.26
2023-05-15T10:39:22.657Z,17.40
2023-05-15T10:41:52.573Z,17.62
2023-05-15T10:44:24.513Z,17.49
2023-05-15T10:46:54.603Z,17.35
2023-05-15T10:49:24.254Z,17.11
2023-05-15T10:51:55.065Z,17.32
2023-05-15T10:54:24.683Z,17.44
2023-05-15T10:56:58.197Z,17.78
2023-05-15T10:59:36.167Z,17.81
2023-05-15T11:02:23.519Z,17.70
2023-05-15T11:04:58.452Z,17.75
2023-05-15T11:07:28.973Z,17.95
2023-05-15T11:09:59.604Z,17.95
2023-05-15T11:12:59.372Z,17.74
2023-05-15T11:15:44.375Z,17.62
2023-05-15T11:18:14.912Z,17.50
2023-05-15T11:21:09.729Z,17.59
2023-05-15T11:23:42.903Z,17.84
2023-05-15T11:26:15.040Z,18.14
2023-05-15T11:28:47.097Z,18.65
2023-05-15T11:31:18.148Z,19.05
2023-05-15T11:33:52.463Z,19.25
2023-05-15T11:36:25.892Z,19.60
2023-05-15T11:38:55.409Z,19.84
2023-05-15T11:41:32.687Z,20.05
2023-05-15T11:44:03.260Z,19.41
2023-05-15T11:46:35.035Z,18.81
2023-05-15T11:49:04.527Z,17.92
2023-05-15T11:51:35.429Z,17.60
2023-05-15T11:54:07.435Z,17.21
2023-05-15T11:56:43.528Z,16.73
2023-05-15T11:59:15.794Z,16.48
2023-05-15T12:01:47.583Z,15.91
2023-05-15T13:28:49.973Z,16.60
2023-05-15T13:31:19.547Z,16.53
2023-05-15T13:33:50.109Z,16.47
2023-05-15T13:36:19.618Z,16.36
2023-05-15T13:38:49.114Z,16.21
2023-05-15T13:41:18.657Z,16.09
2023-05-15T13:43:49.298Z,15.94
2023-05-15T13:46:20.202Z,15.68
2023-05-15T13:48:49.721Z,15.43
2023-05-15T13:51:19.244Z,15.16
2023-05-15T13:53:48.718Z,14.61
2023-05-15T13:56:18.386Z,14.17
2023-05-15T13:58:48.059Z,13.79
2023-05-15T14:01:18.918Z,13.45
2023-05-15T14:03:48.449Z,13.25
2023-05-15T14:06:18.109Z,13.00
2023-05-15T14:08:47.526Z,12.77
2023-05-15T14:11:17.171Z,12.56
2023-05-15T14:13:47.344Z,12.42
2023-05-15T14:16:28.760Z,12.34
2023-05-15T14:18:58.386Z,12.24
2023-05-15T14:21:29.014Z,12.14
2023-05-15T14:23:58.569Z,12.11
2023-05-15T14:26:28.492Z,12.09
2023-05-15T14:28:57.964Z,12.12
2023-05-15T14:31:28.856Z,12.08
2023-05-15T14:33:58.560Z,12.06
2023-05-15T14:36:28.287Z,12.08
2023-05-15T14:39:00.209Z,12.08
2023-05-15T14:41:30.052Z,12.11
2023-05-15T14:43:59.478Z,12.13
2023-05-15T14:46:30.514Z,12.13
2023-05-15T14:49:00.143Z,12.13
2023-05-15T14:51:29.772Z,12.10
2023-05-15T14:53:59.287Z,12.15
2023-05-15T14:56:29.009Z,12.24
2023-05-15T14:58:58.505Z,12.33
2023-05-15T15:01:29.470Z,12.36
2023-05-15T15:03:59.095Z,12.40
2023-05-15T15:06:28.882Z,12.39
2023-05-15T15:08:58.380Z,12.43
2023-05-15T15:11:27.839Z,12.48
2023-05-15T15:13:57.316Z,12.48
2023-05-15T15:16:26.854Z,12.48
2023-05-15T15:18:57.756Z,12.50
2023-05-15T15:21:28.316Z,12.55
2023-05-15T15:23:59.517Z,12.61
2023-05-15T15:26:29.157Z,12.71
2023-05-15T15:29:00.837Z,12.92
2023-05-15T15:31:31.830Z,13.18
2023-05-15T15:34:05.378Z,13.32
2023-05-15T15:36:37.496Z,13.48
2023-05-15T15:39:07.204Z,13.61
2023-05-15T15:41:39.687Z,13.67
2023-05-15T15:44:09.173Z,13.58
2023-05-15T15:46:38.816Z,13.49
2023-05-15T15:49:09.630Z,13.49
2023-05-15T15:51:41.061Z,13.39
2023-05-15T15:54:10.579Z,13.32
2023-05-15T15:56:41.375Z,13.18
2023-05-15T15:59:10.911Z,12.98
2023-05-15T16:01:40.472Z,12.87
2023-05-15T16:04:11.772Z,12.73
2023-05-15T16:06:41.314Z,12.62
2023-05-15T16:09:10.844Z,12.38
2023-05-15T16:11:40.328Z,12.28
2023-05-15T16:14:09.812Z,12.25
2023-05-15T16:16:39.401Z,12.11
2023-05-15T16:19:10.295Z,12.10
2023-05-15T16:21:39.999Z,12.07
2023-05-15T16:24:09.793Z,12.07
2023-05-15T16:26:40.171Z,12.00
2023-05-15T16:29:09.695Z,12.01
2023-05-15T16:31:39.288Z,12.05
2023-05-15T16:34:10.238Z,12.09
2023-05-15T16:36:39.885Z,12.14
2023-05-15T16:39:09.337Z,12.23
2023-05-15T16:41:38.859Z,12.27
2023-05-15T16:44:10.905Z,12.22
2023-05-15T16:46:40.965Z,12.15
2023-05-15T16:49:11.810Z,12.13
2023-05-15T16:51:41.391Z,12.05
2023-05-15T16:54:10.990Z,12.09
2023-05-15T16:56:40.565Z,12.06
2023-05-15T16:59:10.056Z,12.07
2023-05-15T17:01:39.731Z,12.08
2023-05-15T17:04:10.795Z,12.10
2023-05-15T17:06:40.509Z,12.06
2023-05-15T17:09:10.070Z,12.06
2023-05-15T17:11:39.713Z,12.05
2023-05-15T17:14:09.170Z,12.03
2023-05-15T17:16:38.799Z,12.06
2023-05-15T17:19:08.417Z,12.03
2023-05-15T17:21:39.277Z,12.00
2023-05-15T17:24:08.932Z,11.94
2023-05-15T17:26:38.419Z,11.97
2023-05-15T17:29:08.107Z,11.97
2023-05-15T17:31:38.064Z,11.97
2023-05-15T17:34:08.253Z,11.95
2023-05-15T17:36:39.219Z,11.98
2023-05-15T17:39:08.680Z,11.99
2023-05-15T17:41:38.461Z,11.99
2023-05-15T17:44:08.742Z,11.95
2023-05-15T17:46:38.322Z,11.91
2023-05-15T17:49:07.886Z,11.82
2023-05-15T17:51:38.972Z,11.72
2023-05-15T17:54:08.470Z,11.67
2023-05-15T17:56:37.907Z,11.59
2023-05-15T17:59:07.395Z,11.54
2023-05-15T18:01:36.999Z,11.47
2023-05-15T18:04:06.781Z,11.43
2023-05-15T18:06:36.335Z,11.40
2023-05-15T18:09:07.787Z,11.40
2023-05-15T18:11:37.320Z,11.40
2023-05-15T18:14:06.806Z,11.41
2023-05-15T18:16:36.678Z,11.42
2023-05-15T18:19:06.264Z,11.35
2023-05-15T18:21:37.841Z,11.36
2023-05-15T18:24:09.694Z,11.30
2023-05-15T18:26:39.755Z,11.32
2023-05-15T18:29:09.427Z,11.28
2023-05-15T18:31:39.289Z,11.28
2023-05-15T18:34:08.812Z,11.28
2023-05-15T18:36:38.594Z,11.25
2023-05-15T18:39:09.598Z,11.25
2023-05-15T18:41:39.282Z,11.25
2023-05-15T18:44:08.846Z,11.22
2023-05-15T18:46:38.673Z,11.23
2023-05-15T18:49:08.283Z,11.21
2023-05-15T18:51:37.755Z,11.24
2023-05-15T18:54:08.804Z,11.22
2023-05-15T18:56:38.651Z,11.17
2023-05-15T18:59:08.609Z,11.15
2023-05-15T19:01:38.402Z,11.10
2023-05-15T19:04:09.359Z,11.06
2023-05-15T19:06:39.193Z,11.03
2023-05-15T19:09:10.510Z,10.98
2023-05-15T19:11:39.969Z,10.94
2023-05-15T19:14:10.821Z,10.92
2023-05-15T19:16:40.495Z,10.84
2023-05-15T19:19:10.446Z,10.78
2023-05-15T19:21:40.361Z,10.72
2023-05-15T19:24:11.511Z,10.63
2023-05-15T19:26:41.331Z,10.55
2023-05-15T19:29:11.012Z,10.46
2023-05-15T19:31:40.917Z,10.38
2023-05-15T19:34:10.483Z,10.44
2023-05-15T19:36:40.084Z,10.42
2023-05-15T19:39:10.994Z,10.40
2023-05-15T19:41:40.563Z,10.37
2023-05-15T19:44:10.433Z,10.35
2023-05-15T19:46:40.755Z,10.33
2023-05-15T19:49:12.252Z,10.31
2023-05-15T19:51:42.074Z,10.21
2023-05-15T19:54:13.116Z,10.22
2023-05-15T19:56:42.584Z,10.17
2023-05-15T19:59:12.113Z,10.16
2023-05-15T20:01:41.667Z,10.11
2023-05-15T20:04:13.597Z,10.01
2023-05-15T20:06:43.142Z,10.01
2023-05-15T20:09:13.925Z,9.99
2023-05-15T20:11:43.591Z,9.92
2023-05-15T20:14:15.144Z,9.89
2023-05-15T20:16:44.676Z,9.75
2023-05-15T20:19:14.522Z,9.69
2023-05-15T20:21:44.292Z,9.72
2023-05-15T20:24:17.520Z,9.64
2023-05-15T20:26:47.142Z,9.69
2023-05-15T20:29:16.801Z,9.69
2023-05-15T20:31:46.945Z,9.62
2023-05-15T20:34:16.544Z,9.53
2023-05-15T20:36:46.089Z,9.55
2023-05-15T20:39:19.130Z,9.49
2023-05-15T20:41:48.948Z,9.43
2023-05-15T20:44:18.752Z,9.39
2023-05-15T20:46:48.379Z,9.39
2023-05-15T20:49:17.871Z,9.33
2023-05-15T20:51:48.603Z,9.22
2023-05-15T20:54:19.567Z,9.24
2023-05-15T20:56:49.130Z,9.29
2023-05-15T20:59:18.695Z,9.22
2023-05-15T21:01:48.403Z,9.17
2023-05-15T21:04:18.223Z,9.20
2023-05-15T21:06:47.697Z,9.18
2023-05-15T21:09:18.708Z,9.21
2023-05-15T21:11:48.536Z,9.19
2023-05-15T21:14:18.043Z,9.26
2023-05-15T21:16:47.816Z,9.16
2023-05-15T21:19:17.635Z,9.11
2023-05-15T21:21:47.261Z,9.13
2023-05-15T21:24:19.564Z,9.17
2023-05-15T21:26:49.033Z,9.10
2023-05-15T21:29:18.721Z,9.10
2023-05-15T21:31:48.806Z,9.10
2023-05-15T21:34:18.484Z,9.18
2023-05-15T21:36:47.940Z,9.15
2023-05-15T21:39:18.850Z,9.09
2023-05-15T21:41:48.799Z,9.12
2023-05-15T21:44:18.546Z,9.09
2023-05-15T21:46:48.130Z,9.07
2023-05-15T21:49:18.314Z,9.05
2023-05-15T21:51:47.799Z,9.03
2023-05-15T21:54:17.336Z,9.03
2023-05-15T21:56:48.211Z,9.05
2023-05-15T21:59:17.753Z,9.05
2023-05-15T22:01:48.522Z,9.05
2023-05-15T22:04:18.263Z,9.04
2023-05-15T22:06:47.978Z,9.08
2023-05-15T22:09:17.736Z,9.07
2023-05-15T22:11:48.645Z,9.04
2023-05-15T22:14:18.162Z,9.04
2023-05-15T22:16:48.033Z,8.99
2023-05-15T22:19:32.281Z,9.02
2023-05-15T22:22:04.859Z,9.09
2023-05-15T22:24:34.497Z,9.09
2023-05-15T22:27:06.122Z,9.13
2023-05-15T22:29:35.677Z,9.18
2023-05-15T22:32:06.109Z,9.10
2023-05-15T22:34:35.875Z,9.11
2023-05-15T22:37:06.259Z,9.08
2023-05-15T22:39:35.810Z,9.12
2023-05-15T22:42:08.019Z,9.11
2023-05-15T22:44:38.148Z,9.07
2023-05-15T22:47:08.227Z,9.08
2023-05-15T22:49:37.641Z,9.04
2023-05-15T22:52:07.895Z,9.08
2023-05-15T22:54:37.363Z,9.05
2023-05-15T22:57:08.819Z,8.96
2023-05-15T22:59:38.282Z,8.96
2023-05-15T23:02:07.905Z,8.89
2023-05-15T23:04:37.883Z,8.90
2023-05-15T23:07:07.714Z,8.86
2023-05-15T23:09:37.285Z,8.86
2023-05-15T23:12:09.141Z,8.88
2023-05-15T23:14:38.608Z,8.84
2023-05-15T23:17:08.105Z,8.81
2023-05-15T23:19:37.521Z,8.82
2023-05-15T23:22:07.282Z,8.84
2023-05-15T23:24:36.725Z,8.85
2023-05-15T23:27:07.840Z,8.94
2023-05-15T23:29:37.864Z,8.88
2023-05-15T23:32:09.059Z,8.87
2023-05-15T23:34:38.664Z,8.86
2023-05-15T23:37:08.255Z,8.83
2023-05-15T23:39:37.752Z,8.87
2023-05-15T23:42:09.957Z,8.90
2023-05-15T23:44:39.759Z,8.85
2023-05-15T23:47:09.754Z,8.78
2023-05-15T23:49:39.263Z,8.80
2023-05-15T23:52:08.957Z,8.75
2023-05-15T23:54:38.385Z,8.75
2023-05-15T23:57:09.264Z,8.68
2023-05-15T23:59:38.709Z,8.68
